Date,TemperatureHighF,TemperatureAvgF,TemperatureLowF,DewpointHighF,DewpointAvgF,DewpointLowF,HumidityHigh,HumidityAvg,HumidityLow,PressureMaxIn,PressureMinIn,WindSpeedMaxMPH,WindSpeedAvgMPH,GustSpeedMaxMPH,PrecipitationSumIn
2013-10-1,87.5,75.5,69.7,76.6,70.0,66.6,91,84,59,30.03,29.92,15,1,15,0.01
2013-10-2,91.8,77.3,67.8,73.8,68.3,65.0,92,76,46,30.06,29.93,14,1,14,0.01
2013-10-3,88.3,76.9,69.2,74.2,68.9,66.2,91,78,50,30.03,29.92,13,1,13,0.00
2013-10-4,88.1,77.7,70.8,74.7,71.0,67.6,91,80,61,30.02,29.92,15,1,15,0.00
2013-10-5,88.1,76.5,69.0,74.5,70.5,66.1,91,83,59,30.00,29.86,17,1,17,0.35
2013-10-6,74.6,65.2,55.0,71.8,55.0,44.3,91,72,38,30.02,29.89,23,3,23,1.22
2013-10-7,76.4,61.9,49.4,54.4,51.1,46.6,91,70,43,30.10,30.02,15,2,16,0.00
2013-10-8,77.3,61.6,50.1,54.9,51.7,47.3,91,73,43,30.12,30.02,13,1,13,0.01
2013-10-9,81.5,63.4,49.5,59.4,53.6,47.0,92,74,40,30.13,30.03,8,0,8,0.00
2013-10-10,82.0,66.2,55.5,66.0,59.5,52.5,92,81,49,30.14,29.99,10,1,10,0.02
2013-10-11,84.8,68.3,55.3,67.3,61.0,52.7,92,79,52,30.05,29.94,14,1,14,0.00
2013-10-12,85.0,69.7,63.8,72.7,65.6,60.8,92,87,65,30.10,29.97,18,2,18,0.61
2013-10-13,81.2,71.4,65.6,70.6,66.5,62.9,92,85,70,30.21,30.09,14,2,14,0.01
2013-10-14,82.1,70.9,62.6,69.0,64.8,59.9,92,82,61,30.16,30.01,8,1,8,0.00
2013-10-15,80.5,71.9,67.0,70.3,66.3,63.5,89,83,67,30.03,29.91,11,1,11,0.00
2013-10-16,67.2,63.7,59.7,64.4,60.9,57.0,92,91,89,30.00,29.92,16,1,16,0.35
2013-10-17,72.6,62.3,52.9,58.7,56.0,50.2,91,81,55,30.07,29.97,14,2,14,0.00
2013-10-18,73.3,60.6,51.4,58.3,53.6,48.9,92,79,49,30.08,29.95,10,1,10,0.00
2013-10-19,66.1,57.8,46.5,57.4,52.7,43.7,92,84,63,30.09,29.96,16,2,16,0.00
2013-10-20,71.5,53.2,40.3,50.0,44.0,37.9,92,75,36,30.14,30.00,9,0,9,0.00
2013-10-21,74.8,57.7,43.4,59.7,50.0,41.0,92,77,54,30.08,29.96,10,0,10,0.00
2013-10-22,72.6,60.7,51.6,57.9,52.7,48.4,91,77,47,30.08,29.99,14,2,14,0.00
2013-10-23,74.8,57.8,47.6,52.6,48.1,45.0,92,74,38,30.16,30.04,12,1,12,0.00
2013-10-24,78.6,60.9,45.8,58.0,49.8,42.7,90,69,43,30.31,30.08,14,2,14,0.00
2013-10-25,64.1,52.0,43.4,43.6,39.0,33.4,88,64,35,30.48,30.31,15,2,15,0.00
2013-10-26,74.6,54.8,40.6,56.0,45.2,36.8,89,73,40,30.33,30.13,12,1,12,0.00
2013-10-27,73.7,59.7,50.6,62.5,54.6,47.7,91,84,63,30.12,30.02,11,1,11,0.00
2013-10-28,79.0,64.5,55.3,65.2,59.2,52.7,92,84,53,30.18,30.06,9,1,9,0.00
2013-10-29,81.4,67.6,57.6,67.9,60.4,55.0,92,79,48,30.20,30.11,15,1,15,0.00
2013-10-30,72.6,68.4,61.5,68.1,64.2,58.2,91,87,80,30.17,29.95,11,1,11,0.25
2013-10-31,71.5,68.5,62.2,69.1,65.7,59.5,92,91,88,29.95,29.71,23,3,23,4.01